Time;durP1;ratioP1;P1;durP2;ratioP2;P2;SDS_P1;SDS_P2;PMS_P1;PMS_P2;Temp;Humidity;BMP_temperature;BMP_pressure;BME280_temperature;BME280_humidity;BME280_pressure;Samples;Min_cycle;Max_cycle;Signal;HPM_P1;HPM_P2
2024/04/07 00:01:35;;;;;;;7.28;2.30;;;;;;;;;;5093747;28;20074;-56
2024/04/07 00:04:02;;;;;;;5.22;2.17;;;;;;;;;;5084627;28;20369;-56
2024/04/07 00:06:28;;;;;;;3.30;1.77;;;;;;;;;;5092017;28;20044;-57
2024/04/07 00:08:54;;;;;;;7.60;2.03;;;;;;;;;;5092970;28;20419;-57
2024/04/07 00:11:20;;;;;;;3.33;2.13;;;;;;;;;;5089723;28;20028;-56
2024/04/07 00:13:46;;;;;;;5.03;2.20;;;;;;;;;;5091335;28;20024;-57
2024/04/07 00:16:12;;;;;;;3.92;2.20;;;;;;;;;;5093620;28;20069;-58
2024/04/07 00:18:38;;;;;;;4.90;2.42;;;;;;;;;;5092387;28;20581;-56
2024/04/07 00:21:05;;;;;;;4.00;1.88;;;;;;;;;;5092965;28;20142;-56
2024/04/07 00:23:31;;;;;;;4.88;2.30;;;;;;;;;;5092337;28;20748;-57
2024/04/07 00:25:58;;;;;;;5.53;2.20;;;;;;;;;;5092901;28;20111;-57
2024/04/07 00:28:24;;;;;;;5.47;2.38;;;;;;;;;;5083193;28;20096;-60
2024/04/07 00:30:50;;;;;;;6.65;2.35;;;;;;;;;;5085839;28;20028;-60
2024/04/07 00:33:16;;;;;;;3.97;2.40;;;;;;;;;;5088982;28;20107;-61
2024/04/07 00:35:53;;;;;;;4.28;2.25;;;;;;;;;;5092532;28;20115;-61
2024/04/07 00:38:19;;;;;;;8.65;2.60;;;;;;;;;;5092213;28;20107;-60
2024/04/07 00:40:45;;;;;;;2.75;1.90;;;;;;;;;;5076921;28;20051;-61
2024/04/07 00:43:11;;;;;;;6.03;2.50;;;;;;;;;;5089424;28;20032;-60
2024/04/07 00:45:37;;;;;;;5.20;2.22;;;;;;;;;;5088220;28;20535;-59
2024/04/07 00:48:03;;;;;;;4.40;2.42;;;;;;;;;;5093998;28;20036;-60
2024/04/07 00:50:29;;;;;;;4.35;2.22;;;;;;;;;;5091690;28;20373;-60
2024/04/07 00:52:55;;;;;;;3.20;2.15;;;;;;;;;;5091712;28;20034;-61
2024/04/07 00:55:21;;;;;;;4.85;2.30;;;;;;;;;;5091645;28;20024;-60
2024/04/07 00:57:48;;;;;;;3.45;2.33;;;;;;;;;;5091112;28;20035;-60
2024/04/07 01:00:14;;;;;;;4.10;2.53;;;;;;;;;;5092257;28;20032;-60
2024/04/07 01:02:40;;;;;;;5.07;2.30;;;;;;;;;;5090978;28;20119;-60
2024/04/07 01:05:06;;;;;;;5.30;2.70;;;;;;;;;;5089318;28;20038;-58
2024/04/07 01:07:32;;;;;;;6.47;2.35;;;;;;;;;;5087215;28;20028;-57
2024/04/07 01:09:58;;;;;;;4.18;2.15;;;;;;;;;;5091977;28;20031;-57
2024/04/07 01:12:24;;;;;;;3.08;2.05;;;;;;;;;;5091026;28;20052;-57
2024/04/07 01:14:50;;;;;;;8.38;2.38;;;;;;;;;;5085078;28;20047;-57
2024/04/07 01:17:16;;;;;;;6.20;2.22;;;;;;;;;;5087615;28;20039;-58
2024/04/07 01:19:43;;;;;;;5.03;2.58;;;;;;;;;;5091297;28;20035;-58
2024/04/07 01:22:09;;;;;;;4.40;2.38;;;;;;;;;;5084556;28;20380;-58
2024/04/07 01:24:35;;;;;;;3.38;2.20;;;;;;;;;;5086692;28;20046;-57
2024/04/07 01:27:01;;;;;;;4.25;2.72;;;;;;;;;;5091873;28;20475;-57
2024/04/07 01:29:27;;;;;;;4.38;2.42;;;;;;;;;;5089545;28;20464;-57
2024/04/07 01:31:53;;;;;;;4.35;2.50;;;;;;;;;;5091878;28;20404;-57
2024/04/07 01:34:19;;;;;;;3.78;2.20;;;;;;;;;;5079712;28;20039;-57
2024/04/07 01:36:46;;;;;;;5.18;2.10;;;;;;;;;;5088056;28;20024;-57
2024/04/07 01:39:11;;;;;;;6.90;2.30;;;;;;;;;;5091867;28;20109;-57
2024/04/07 01:41:37;;;;;;;3.92;2.30;;;;;;;;;;5091487;28;20028;-57
2024/04/07 01:44:03;;;;;;;6.07;2.38;;;;;;;;;;5104235;28;20036;-57
2024/04/07 01:46:29;;;;;;;7.55;2.75;;;;;;;;;;5086819;28;20165;-57
2024/04/07 01:48:55;;;;;;;4.00;2.28;;;;;;;;;;5094422;28;20438;-57
2024/04/07 01:51:21;;;;;;;4.10;2.67;;;;;;;;;;5089596;28;20024;-58
2024/04/07 01:53:47;;;;;;;6.78;2.53;;;;;;;;;;5095270;28;20024;-57
2024/04/07 01:56:13;;;;;;;4.28;2.60;;;;;;;;;;5095602;28;20103;-57
2024/04/07 01:58:39;;;;;;;3.92;2.38;;;;;;;;;;5095582;28;20035;-57
2024/04/07 02:01:06;;;;;;;8.30;2.55;;;;;;;;;;5087729;28;20506;-57
2024/04/07 02:03:33;;;;;;;4.25;2.40;;;;;;;;;;5093932;28;20025;-58
2024/04/07 02:06:00;;;;;;;3.33;1.90;;;;;;;;;;5086495;28;20024;-57
2024/04/07 02:08:26;;;;;;;4.63;2.85;;;;;;;;;;5111458;28;20376;-57
2024/04/07 02:10:52;;;;;;;5.35;2.65;;;;;;;;;;5095413;28;20461;-58
2024/04/07 02:13:19;;;;;;;4.07;2.40;;;;;;;;;;5094652;28;20039;-58
2024/04/07 02:15:45;;;;;;;4.18;2.50;;;;;;;;;;5093205;28;20361;-57
2024/04/07 02:18:11;;;;;;;4.05;2.55;;;;;;;;;;5082675;28;20024;-57
2024/04/07 02:20:37;;;;;;;4.75;2.58;;;;;;;;;;5082683;28;20441;-57
2024/04/07 02:23:04;;;;;;;3.80;2.15;;;;;;;;;;5094187;28;20059;-57
2024/04/07 02:25:30;;;;;;;5.65;2.25;;;;;;;;;;5094634;28;20418;-58
2024/04/07 02:27:56;;;;;;;3.92;2.10;;;;;;;;;;5078572;28;20040;-57
2024/04/07 02:30:22;;;;;;;7.80;2.63;;;;;;;;;;5091306;28;20032;-58
2024/04/07 02:32:49;;;;;;;8.45;2.75;;;;;;;;;;5094767;28;20043;-57
2024/04/07 02:35:15;;;;;;;4.65;2.53;;;;;;;;;;5081993;28;20024;-57
2024/04/07 02:37:43;;;;;;;3.95;2.28;;;;;;;;;;5094417;28;20480;-57
2024/04/07 02:40:09;;;;;;;5.10;2.20;;;;;;;;;;5089016;28;20465;-58
2024/04/07 02:42:35;;;;;;;3.60;1.98;;;;;;;;;;5108321;28;20027;-58
2024/04/07 02:48:04;;;;;;;9.38;2.28;;;;;;;;;;5094570;28;20102;-57
2024/04/07 02:50:33;;;;;;;4.63;2.50;;;;;;;;;;5081674;28;20029;-57
2024/04/07 02:53:00;;;;;;;6.15;2.55;;;;;;;;;;5086917;28;20033;-57
2024/04/07 02:55:26;;;;;;;6.00;2.30;;;;;;;;;;5094554;28;20027;-58
2024/04/07 02:57:52;;;;;;;5.68;2.53;;;;;;;;;;5094534;28;20020;-57
2024/04/07 03:00:18;;;;;;;9.13;2.38;;;;;;;;;;5092079;28;20032;-57
2024/04/07 03:02:44;;;;;;;3.67;2.17;;;;;;;;;;5089441;28;20598;-57
2024/04/07 03:05:13;;;;;;;4.88;2.40;;;;;;;;;;5093770;28;20040;-59
2024/04/07 03:07:39;;;;;;;7.40;2.30;;;;;;;;;;5091129;28;20559;-57
2024/04/07 03:10:09;;;;;;;4.85;2.45;;;;;;;;;;5093550;28;20082;-57
2024/04/07 03:12:35;;;;;;;2.58;1.75;;;;;;;;;;5090463;28;20104;-57
2024/04/07 03:15:02;;;;;;;6.57;2.80;;;;;;;;;;5093928;28;20036;-57
2024/04/07 03:17:28;;;;;;;4.47;2.60;;;;;;;;;;5081044;28;20036;-57
2024/04/07 03:19:54;;;;;;;7.82;2.60;;;;;;;;;;5083396;28;20111;-58
2024/04/07 03:22:20;;;;;;;8.05;2.17;;;;;;;;;;5091946;28;20032;-57
2024/04/07 03:24:46;;;;;;;8.93;2.17;;;;;;;;;;5089808;28;20051;-57
2024/04/07 03:27:12;;;;;;;5.32;2.35;;;;;;;;;;5090123;28;20028;-57
2024/04/07 03:29:38;;;;;;;5.72;2.53;;;;;;;;;;5094033;28;20028;-60
2024/04/07 03:32:04;;;;;;;4.82;2.50;;;;;;;;;;5093625;28;20487;-59
2024/04/07 03:34:31;;;;;;;6.35;2.30;;;;;;;;;;5085083;28;20095;-62
2024/04/07 03:36:57;;;;;;;4.28;1.88;;;;;;;;;;5086623;28;20107;-61
2024/04/07 03:39:23;;;;;;;5.80;2.08;;;;;;;;;;5087549;28;20035;-61
2024/04/07 03:41:49;;;;;;;3.38;2.20;;;;;;;;;;5088922;28;20383;-61
2024/04/07 03:44:15;;;;;;;4.90;2.17;;;;;;;;;;5093019;28;20036;-61
2024/04/07 03:46:41;;;;;;;5.00;1.83;;;;;;;;;;5087777;28;20055;-61
2024/04/07 03:49:08;;;;;;;3.85;2.15;;;;;;;;;;5076267;28;20217;-61
2024/04/07 03:51:33;;;;;;;5.85;2.33;;;;;;;;;;5092963;28;20070;-61
2024/04/07 03:53:59;;;;;;;5.18;2.20;;;;;;;;;;5092897;28;20468;-61
2024/04/07 03:56:26;;;;;;;6.85;2.15;;;;;;;;;;5078441;28;20159;-61
2024/04/07 03:58:52;;;;;;;3.00;2.10;;;;;;;;;;5086537;28;20032;-61
2024/04/07 04:01:17;;;;;;;4.18;2.58;;;;;;;;;;5093229;28;20028;-57
2024/04/07 04:03:43;;;;;;;5.13;2.30;;;;;;;;;;5080828;28;20036;-58
2024/04/07 04:06:09;;;;;;;2.60;2.13;;;;;;;;;;5086253;28;20035;-56
2024/04/07 04:08:35;;;;;;;3.85;2.03;;;;;;;;;;5090635;28;20031;-56
2024/04/07 04:11:05;;;;;;;5.78;2.83;;;;;;;;;;5092459;28;20032;-57
2024/04/07 04:13:31;;;;;;;5.60;2.00;;;;;;;;;;5092261;28;20108;-56
2024/04/07 04:15:59;;;;;;;4.35;2.42;;;;;;;;;;5091143;28;20032;-59
2024/04/07 04:18:25;;;;;;;3.00;2.00;;;;;;;;;;5087898;28;20131;-57
2024/04/07 04:20:51;;;;;;;4.93;2.40;;;;;;;;;;5087939;28;20024;-56
2024/04/07 04:23:17;;;;;;;4.18;2.85;;;;;;;;;;5091661;28;20031;-56
2024/04/07 04:25:56;;;;;;;4.53;2.20;;;;;;;;;;5092271;28;20063;-56
2024/04/07 04:28:23;;;;;;;4.57;2.10;;;;;;;;;;5087994;28;20036;-56
2024/04/07 04:30:53;;;;;;;5.05;2.13;;;;;;;;;;5091801;28;20181;-56
2024/04/07 04:33:19;;;;;;;3.38;1.80;;;;;;;;;;5089223;28;20024;-57
2024/04/07 04:35:44;;;;;;;5.22;2.00;;;;;;;;;;5087865;28;20020;-56
2024/04/07 04:38:11;;;;;;;4.80;2.10;;;;;;;;;;5086862;28;20043;-61
2024/04/07 04:40:37;;;;;;;8.23;2.38;;;;;;;;;;5091038;28;20470;-60
2024/04/07 04:43:03;;;;;;;9.23;2.80;;;;;;;;;;5089338;28;20124;-61
2024/04/07 04:45:29;;;;;;;5.93;2.53;;;;;;;;;;5087901;28;20165;-61
2024/04/07 04:47:55;;;;;;;5.65;2.40;;;;;;;;;;5085266;28;20103;-58
2024/04/07 04:50:21;;;;;;;3.22;1.65;;;;;;;;;;5089817;28;20032;-61
2024/04/07 04:52:47;;;;;;;5.60;2.30;;;;;;;;;;5090890;28;20073;-61
2024/04/07 04:55:13;;;;;;;5.72;2.58;;;;;;;;;;5084316;28;20025;-61
2024/04/07 04:57:39;;;;;;;3.38;2.38;;;;;;;;;;5088432;28;20039;-61
2024/04/07 05:00:05;;;;;;;3.25;2.30;;;;;;;;;;5091148;28;20040;-63
2024/04/07 05:02:31;;;;;;;3.83;2.40;;;;;;;;;;5104111;28;20036;-60
2024/04/07 05:04:57;;;;;;;4.75;2.47;;;;;;;;;;5078726;28;20036;-61
2024/04/07 05:07:23;;;;;;;5.93;2.03;;;;;;;;;;5085631;28;20533;-60
2024/04/07 05:09:49;;;;;;;4.30;2.75;;;;;;;;;;5083586;28;20024;-60
2024/04/07 05:12:15;;;;;;;4.47;2.22;;;;;;;;;;5090239;28;20027;-61
2024/04/07 05:14:41;;;;;;;4.75;1.95;;;;;;;;;;5090658;28;20020;-61
2024/04/07 05:17:08;;;;;;;4.40;2.00;;;;;;;;;;5090896;28;20020;-61
2024/04/07 05:19:34;;;;;;;2.72;1.92;;;;;;;;;;5090370;28;20376;-61
2024/04/07 05:22:00;;;;;;;7.28;2.30;;;;;;;;;;5090998;28;20032;-61
2024/04/07 05:24:28;;;;;;;8.77;2.20;;;;;;;;;;5089584;28;20047;-63
2024/04/07 05:26:54;;;;;;;3.72;2.10;;;;;;;;;;5076975;28;20025;-61
2024/04/07 05:29:20;;;;;;;3.53;2.10;;;;;;;;;;5085279;28;20448;-61
2024/04/07 05:31:46;;;;;;;5.97;2.00;;;;;;;;;;5080449;28;20351;-61
2024/04/07 05:34:12;;;;;;;3.60;2.25;;;;;;;;;;5089826;28;20407;-60
2024/04/07 05:36:38;;;;;;;3.60;1.80;;;;;;;;;;5090660;28;20082;-59
2024/04/07 05:39:04;;;;;;;2.63;1.85;;;;;;;;;;5084219;28;20024;-61
2024/04/07 05:41:30;;;;;;;2.85;2.00;;;;;;;;;;5091680;28;20480;-61
2024/04/07 05:43:56;;;;;;;4.40;2.25;;;;;;;;;;5087390;28;20021;-61
2024/04/07 05:46:22;;;;;;;3.70;1.65;;;;;;;;;;5088721;28;20031;-61
2024/04/07 05:48:48;;;;;;;2.42;1.70;;;;;;;;;;5088157;28;20020;-58
2024/04/07 05:51:14;;;;;;;3.00;1.80;;;;;;;;;;5090596;28;20043;-56
2024/04/07 05:53:40;;;;;;;4.28;2.08;;;;;;;;;;5085400;28;20047;-57
2024/04/07 05:56:15;;;;;;;4.90;2.00;;;;;;;;;;5090367;28;20028;-56
2024/04/07 05:58:41;;;;;;;3.08;1.77;;;;;;;;;;5084799;28;20093;-56
2024/04/07 06:01:08;;;;;;;3.60;1.85;;;;;;;;;;5090824;28;20047;-57
2024/04/07 06:03:34;;;;;;;5.32;1.73;;;;;;;;;;5088122;28;20040;-57
2024/04/07 06:06:01;;;;;;;2.65;1.45;;;;;;;;;;5087907;28;20032;-56
2024/04/07 06:08:27;;;;;;;4.28;1.70;;;;;;;;;;5087757;28;20097;-57
2024/04/07 06:10:53;;;;;;;3.97;1.90;;;;;;;;;;5090267;28;20032;-56
2024/04/07 06:13:19;;;;;;;2.75;1.60;;;;;;;;;;5090333;28;20036;-57
2024/04/07 06:15:45;;;;;;;3.53;1.42;;;;;;;;;;5088779;28;20031;-57
2024/04/07 06:18:11;;;;;;;4.55;1.52;;;;;;;;;;5089216;28;20157;-57
2024/04/07 06:20:37;;;;;;;2.10;1.60;;;;;;;;;;5083172;28;20024;-57
2024/04/07 06:23:03;;;;;;;2.78;1.58;;;;;;;;;;5085502;28;20058;-58
2024/04/07 06:25:29;;;;;;;2.42;1.58;;;;;;;;;;5087381;28;20052;-58
2024/04/07 06:27:56;;;;;;;2.33;1.40;;;;;;;;;;5092620;28;20027;-57
2024/04/07 06:30:22;;;;;;;3.53;1.23;;;;;;;;;;5092539;28;20560;-57
2024/04/07 06:32:48;;;;;;;2.63;1.70;;;;;;;;;;5093564;28;20012;-57
2024/04/07 06:35:13;;;;;;;5.43;1.30;;;;;;;;;;5085229;28;20024;-57
2024/04/07 06:37:39;;;;;;;3.65;1.33;;;;;;;;;;5090691;28;20081;-57
2024/04/07 06:40:06;;;;;;;2.33;1.60;;;;;;;;;;5094116;28;20063;-57
2024/04/07 06:42:32;;;;;;;3.03;1.30;;;;;;;;;;5106675;28;20035;-57
2024/04/07 06:45:02;;;;;;;3.03;1.55;;;;;;;;;;5093291;28;20024;-57
2024/04/07 06:47:28;;;;;;;3.78;1.52;;;;;;;;;;5091760;28;20229;-57
2024/04/07 06:49:55;;;;;;;2.53;1.33;;;;;;;;;;5088828;28;20081;-57
2024/04/07 06:52:21;;;;;;;5.88;1.23;;;;;;;;;;5092816;28;20114;-57
2024/04/07 06:54:47;;;;;;;3.13;1.60;;;;;;;;;;5092214;28;20145;-58
2024/04/07 06:57:14;;;;;;;2.40;1.42;;;;;;;;;;5092986;28;20118;-57
2024/04/07 06:59:40;;;;;;;2.42;1.10;;;;;;;;;;5093499;28;20016;-61
2024/04/07 07:02:06;;;;;;;8.23;1.40;;;;;;;;;;5092978;28;20114;-62
2024/04/07 07:04:33;;;;;;;3.63;1.20;;;;;;;;;;5092425;28;20047;-61
2024/04/07 07:06:59;;;;;;;2.65;1.35;;;;;;;;;;5079161;28;20039;-62
2024/04/07 07:09:25;;;;;;;2.30;1.25;;;;;;;;;;5090364;28;20039;-59
2024/04/07 07:11:51;;;;;;;2.33;1.30;;;;;;;;;;5092406;28;20116;-62
2024/04/07 07:14:17;;;;;;;3.55;1.52;;;;;;;;;;5092939;28;20024;-62
2024/04/07 07:16:43;;;;;;;3.50;1.27;;;;;;;;;;5093336;28;20020;-62
2024/04/07 07:19:09;;;;;;;2.58;1.30;;;;;;;;;;5082313;28;20025;-62
2024/04/07 07:21:35;;;;;;;2.00;1.08;;;;;;;;;;5087082;28;20040;-61
2024/04/07 07:24:01;;;;;;;2.08;1.00;;;;;;;;;;5079653;28;20063;-61
2024/04/07 07:26:27;;;;;;;3.78;0.98;;;;;;;;;;5086476;28;20036;-62
2024/04/07 07:28:53;;;;;;;7.20;1.27;;;;;;;;;;5100397;28;20070;-62
2024/04/07 07:31:19;;;;;;;5.20;1.17;;;;;;;;;;5098121;28;20115;-62
2024/04/07 07:33:45;;;;;;;1.45;1.02;;;;;;;;;;5085675;28;20107;-62
2024/04/07 07:36:11;;;;;;;1.67;1.00;;;;;;;;;;5090186;28;20081;-62
2024/04/07 07:38:37;;;;;;;1.63;1.08;;;;;;;;;;5091680;28;20036;-62
2024/04/07 07:41:03;;;;;;;2.45;1.00;;;;;;;;;;5085263;28;20032;-62
2024/04/07 07:43:30;;;;;;;5.32;1.40;;;;;;;;;;5087420;28;20047;-62
2024/04/07 07:45:56;;;;;;;1.77;1.13;;;;;;;;;;5085174;28;20031;-62
2024/04/07 07:48:23;;;;;;;4.68;1.30;;;;;;;;;;5088043;28;20046;-62
2024/04/07 07:50:49;;;;;;;2.90;1.20;;;;;;;;;;5088750;28;20027;-62
2024/04/07 07:53:15;;;;;;;4.13;1.10;;;;;;;;;;5087610;28;20099;-62
2024/04/07 07:55:41;;;;;;;1.58;0.88;;;;;;;;;;5088831;28;20106;-62
2024/04/07 07:58:07;;;;;;;2.15;1.17;;;;;;;;;;5090162;28;20020;-62
2024/04/07 08:00:33;;;;;;;2.35;1.10;;;;;;;;;;5089428;28;20024;-62
2024/04/07 08:02:59;;;;;;;1.80;1.00;;;;;;;;;;5088248;28;20085;-62
2024/04/07 08:05:25;;;;;;;3.90;1.10;;;;;;;;;;5088159;28;20039;-64
2024/04/07 08:07:51;;;;;;;6.13;1.33;;;;;;;;;;5084426;28;20032;-62
2024/04/07 08:10:17;;;;;;;1.70;1.00;;;;;;;;;;5087435;28;20020;-61
2024/04/07 08:12:44;;;;;;;5.10;0.98;;;;;;;;;;5078814;28;20028;-60
2024/04/07 08:15:14;;;;;;;6.20;0.90;;;;;;;;;;5090022;28;20028;-61
2024/04/07 08:17:40;;;;;;;1.85;1.08;;;;;;;;;;5089223;28;20016;-61
2024/04/07 08:20:07;;;;;;;1.70;0.80;;;;;;;;;;5079226;28;20032;-59
2024/04/07 08:22:33;;;;;;;1.45;0.88;;;;;;;;;;5084192;28;20020;-61
2024/04/07 08:24:59;;;;;;;3.92;1.08;;;;;;;;;;5091371;28;20404;-60
2024/04/07 08:27:25;;;;;;;1.73;0.95;;;;;;;;;;5091895;28;20020;-61
2024/04/07 08:29:51;;;;;;;2.53;0.80;;;;;;;;;;5091692;28;20020;-61
2024/04/07 08:32:17;;;;;;;4.28;1.20;;;;;;;;;;5088675;28;20028;-60
2024/04/07 08:34:43;;;;;;;3.45;1.23;;;;;;;;;;5089960;28;20020;-61
2024/04/07 08:37:09;;;;;;;4.38;0.93;;;;;;;;;;5084379;28;20465;-61
2024/04/07 08:39:35;;;;;;;5.50;0.90;;;;;;;;;;5085634;28;20028;-61
2024/04/07 08:42:02;;;;;;;1.65;0.68;;;;;;;;;;5086686;28;20496;-60
2024/04/07 08:44:28;;;;;;;1.85;1.23;;;;;;;;;;5088491;28;20056;-61
2024/04/07 08:46:55;;;;;;;4.90;0.98;;;;;;;;;;5088380;28;20415;-61
2024/04/07 08:49:22;;;;;;;3.55;0.80;;;;;;;;;;5087683;28;20040;-61
2024/04/07 08:51:49;;;;;;;1.85;0.82;;;;;;;;;;5090876;28;20440;-61
2024/04/07 08:54:16;;;;;;;2.20;0.90;;;;;;;;;;5088061;28;20544;-61
2024/04/07 08:56:42;;;;;;;2.00;1.05;;;;;;;;;;5079832;28;20555;-61
2024/04/07 08:59:09;;;;;;;2.22;1.17;;;;;;;;;;5084608;28;20024;-61
2024/04/07 09:01:35;;;;;;;11.02;1.20;;;;;;;;;;5090688;28;20489;-61
2024/04/07 09:04:02;;;;;;;4.82;1.20;;;;;;;;;;5082424;28;21112;-60
2024/04/07 09:06:28;;;;;;;4.53;0.98;;;;;;;;;;5077285;28;20535;-59
2024/04/07 09:08:58;;;;;;;2.70;0.90;;;;;;;;;;5090406;28;20181;-60
2024/04/07 09:11:27;;;;;;;2.35;1.10;;;;;;;;;;5087632;28;20490;-58
2024/04/07 09:13:53;;;;;;;5.82;1.17;;;;;;;;;;5090870;28;20087;-59
2024/04/07 09:16:19;;;;;;;2.45;0.98;;;;;;;;;;5084952;28;20028;-61
2024/04/07 09:18:46;;;;;;;4.30;1.30;;;;;;;;;;5082673;28;20479;-59
2024/04/07 09:21:24;;;;;;;3.40;0.75;;;;;;;;;;5088494;28;20462;-58
2024/04/07 09:23:50;;;;;;;3.22;1.00;;;;;;;;;;5089459;28;20031;-58
2024/04/07 09:26:17;;;;;;;8.90;1.17;;;;;;;;;;5091076;28;20043;-58
2024/04/07 09:28:43;;;;;;;4.00;0.88;;;;;;;;;;5084877;28;20143;-58
2024/04/07 09:31:09;;;;;;;4.40;1.20;;;;;;;;;;5087396;28;20086;-58
2024/04/07 09:33:35;;;;;;;5.82;1.38;;;;;;;;;;5084770;28;20024;-58
2024/04/07 09:36:02;;;;;;;7.07;1.17;;;;;;;;;;5088048;28;20081;-58
2024/04/07 09:38:28;;;;;;;1.33;0.70;;;;;;;;;;5085220;28;20033;-58
2024/04/07 09:40:58;;;;;;;4.35;1.10;;;;;;;;;;5089338;28;20039;-58
2024/04/07 09:43:25;;;;;;;4.40;1.10;;;;;;;;;;5087784;28;20028;-59
2024/04/07 09:45:54;;;;;;;4.20;1.40;;;;;;;;;;5088590;28;20028;-58
2024/04/07 09:48:21;;;;;;;5.28;1.23;;;;;;;;;;5084063;28;20046;-58
2024/04/07 09:51:04;;;;;;;3.88;1.10;;;;;;;;;;5084683;28;20063;-59
2024/04/07 09:53:35;;;;;;;1.85;1.05;;;;;;;;;;5088385;28;20085;-58
2024/04/07 09:56:03;;;;;;;5.15;1.42;;;;;;;;;;5089659;28;20467;-58
2024/04/07 09:58:29;;;;;;;4.05;1.10;;;;;;;;;;5083943;28;20036;-58
2024/04/07 10:00:56;;;;;;;15.20;1.48;;;;;;;;;;5087215;28;20073;-58
2024/04/07 10:03:22;;;;;;;7.45;1.13;;;;;;;;;;5090131;28;20017;-57
2024/04/07 10:05:48;;;;;;;1.88;0.90;;;;;;;;;;5092488;28;20389;-58
2024/04/07 10:08:15;;;;;;;2.30;0.75;;;;;;;;;;5091584;28;20040;-58
2024/04/07 10:10:41;;;;;;;2.38;1.17;;;;;;;;;;5094008;28;20032;-58
2024/04/07 10:13:11;;;;;;;6.13;1.20;;;;;;;;;;5091859;28;20085;-57
2024/04/07 10:15:38;;;;;;;4.18;1.08;;;;;;;;;;5081965;28;20016;-59
2024/04/07 10:18:11;;;;;;;2.70;0.90;;;;;;;;;;5087605;28;20110;-58
2024/04/07 10:20:38;;;;;;;2.42;1.05;;;;;;;;;;5077462;28;20416;-59
2024/04/07 10:23:06;;;;;;;5.80;1.40;;;;;;;;;;5091373;28;20123;-59
2024/04/07 10:25:36;;;;;;;8.43;1.23;;;;;;;;;;5094274;28;20048;-58
2024/04/07 10:28:02;;;;;;;2.83;0.98;;;;;;;;;;5094453;28;20032;-60
2024/04/07 10:30:28;;;;;;;2.67;1.10;;;;;;;;;;5092666;28;20062;-60
2024/04/07 10:32:54;;;;;;;7.97;1.50;;;;;;;;;;5090733;28;20020;-60
2024/04/07 10:35:22;;;;;;;2.08;1.08;;;;;;;;;;5090917;28;20021;-60
2024/04/07 10:37:50;;;;;;;4.95;1.27;;;;;;;;;;5091816;28;20024;-60
2024/04/07 10:40:17;;;;;;;4.00;1.20;;;;;;;;;;5090382;28;20023;-60
2024/04/07 10:42:43;;;;;;;4.07;1.10;;;;;;;;;;5093967;28;20055;-60
2024/04/07 10:45:10;;;;;;;7.78;1.45;;;;;;;;;;5093026;28;20032;-60
2024/04/07 10:47:36;;;;;;;2.53;1.27;;;;;;;;;;5091799;28;20035;-58
2024/04/07 10:50:04;;;;;;;4.63;1.02;;;;;;;;;;5090178;28;20031;-60
2024/04/07 10:52:31;;;;;;;4.97;1.23;;;;;;;;;;5093178;28;20363;-59
2024/04/07 10:54:57;;;;;;;4.82;1.05;;;;;;;;;;5091774;28;20035;-60
2024/04/07 10:57:23;;;;;;;4.25;1.08;;;;;;;;;;5093698;28;20032;-60
2024/04/07 10:59:50;;;;;;;5.53;1.33;;;;;;;;;;5091904;28;20127;-59
2024/04/07 11:02:16;;;;;;;3.58;1.05;;;;;;;;;;5089507;28;20051;-60
2024/04/07 11:04:42;;;;;;;10.25;1.17;;;;;;;;;;5082653;28;20112;-59
2024/04/07 11:07:09;;;;;;;4.10;1.23;;;;;;;;;;5076578;28;20031;-60
2024/04/07 11:09:35;;;;;;;4.90;1.25;;;;;;;;;;5086611;28;20057;-60
2024/04/07 11:12:02;;;;;;;1.88;0.95;;;;;;;;;;5092939;28;20028;-60
2024/04/07 11:14:29;;;;;;;5.30;1.40;;;;;;;;;;5085525;28;20432;-59
2024/04/07 11:16:55;;;;;;;8.73;1.20;;;;;;;;;;5085634;28;20039;-60
2024/04/07 11:19:22;;;;;;;4.68;1.10;;;;;;;;;;5086283;28;20047;-60
2024/04/07 11:21:48;;;;;;;9.57;1.33;;;;;;;;;;5085720;28;20032;-60
2024/04/07 11:24:15;;;;;;;4.35;0.80;;;;;;;;;;5090642;28;20464;-60
2024/04/07 11:26:41;;;;;;;7.57;1.00;;;;;;;;;;5082246;28;20123;-59
2024/04/07 11:29:07;;;;;;;6.18;1.20;;;;;;;;;;5084496;28;20036;-59
2024/04/07 11:31:33;;;;;;;2.38;0.85;;;;;;;;;;5089675;28;20036;-60
2024/04/07 11:33:59;;;;;;;4.07;0.90;;;;;;;;;;5087505;28;20103;-60
2024/04/07 11:36:25;;;;;;;7.60;1.17;;;;;;;;;;5089420;28;20082;-60
2024/04/07 11:38:51;;;;;;;4.68;1.13;;;;;;;;;;5088529;28;20108;-58
2024/04/07 11:41:17;;;;;;;4.18;0.85;;;;;;;;;;5092199;28;20081;-61
2024/04/07 11:43:44;;;;;;;4.75;0.65;;;;;;;;;;5099537;28;20032;-61
2024/04/07 11:46:10;;;;;;;3.67;0.95;;;;;;;;;;5081318;28;20024;-60
2024/04/07 11:48:37;;;;;;;2.40;0.68;;;;;;;;;;5085438;28;20020;-60
2024/04/07 11:51:03;;;;;;;4.15;0.80;;;;;;;;;;5091652;28;20046;-60
2024/04/07 11:53:29;;;;;;;3.10;0.90;;;;;;;;;;5090651;28;20028;-61
2024/04/07 11:55:55;;;;;;;4.45;0.90;;;;;;;;;;5088341;28;20031;-61
2024/04/07 11:58:22;;;;;;;4.90;0.95;;;;;;;;;;5090505;28;20028;-60
2024/04/07 12:00:48;;;;;;;7.80;1.02;;;;;;;;;;5088075;28;20055;-61
2024/04/07 12:03:14;;;;;;;3.97;0.88;;;;;;;;;;5087542;28;20462;-61
2024/04/07 12:05:41;;;;;;;5.50;0.95;;;;;;;;;;5089044;28;20039;-61
2024/04/07 12:08:07;;;;;;;5.10;0.93;;;;;;;;;;5089092;28;20024;-61
2024/04/07 12:10:33;;;;;;;5.57;1.20;;;;;;;;;;5089170;28;20028;-60
2024/04/07 12:12:59;;;;;;;2.20;0.80;;;;;;;;;;5086824;28;20089;-61
2024/04/07 12:15:25;;;;;;;1.73;0.68;;;;;;;;;;5088348;28;20465;-60
2024/04/07 12:17:51;;;;;;;6.47;0.90;;;;;;;;;;5091569;28;20590;-60
2024/04/07 12:20:17;;;;;;;3.35;1.02;;;;;;;;;;5088991;28;20040;-61
2024/04/07 12:22:43;;;;;;;5.07;0.90;;;;;;;;;;5092493;28;20062;-61
2024/04/07 12:25:09;;;;;;;2.25;0.50;;;;;;;;;;5090691;28;20048;-61
2024/04/07 12:27:35;;;;;;;5.10;0.95;;;;;;;;;;5097847;28;20102;-60
2024/04/07 12:30:01;;;;;;;3.67;0.90;;;;;;;;;;5088671;28;20102;-61
2024/04/07 12:32:27;;;;;;;4.78;1.20;;;;;;;;;;5086090;28;20035;-61
2024/04/07 12:34:53;;;;;;;5.00;1.52;;;;;;;;;;5087986;28;20778;-61
2024/04/07 12:37:19;;;;;;;3.35;0.70;;;;;;;;;;5087849;28;20106;-61
2024/04/07 12:39:45;;;;;;;7.32;0.90;;;;;;;;;;5088212;28;20052;-61
2024/04/07 12:42:11;;;;;;;3.55;0.98;;;;;;;;;;5088312;28;20046;-60
2024/04/07 12:44:37;;;;;;;4.75;1.15;;;;;;;;;;5087472;28;20038;-60
2024/04/07 12:47:03;;;;;;;1.50;0.60;;;;;;;;;;5082189;28;20055;-62
2024/04/07 12:49:29;;;;;;;3.38;1.00;;;;;;;;;;5088284;28;20403;-59
2024/04/07 12:51:55;;;;;;;9.63;1.02;;;;;;;;;;5087931;28;20028;-58
2024/04/07 12:54:21;;;;;;;3.05;0.77;;;;;;;;;;5088463;28;20066;-59
2024/04/07 12:56:47;;;;;;;5.28;1.25;;;;;;;;;;5088599;28;20024;-57
2024/04/07 12:59:13;;;;;;;1.58;0.60;;;;;;;;;;5087441;28;20127;-59
2024/04/07 13:01:39;;;;;;;7.57;0.90;;;;;;;;;;5089107;28;20529;-59
2024/04/07 13:04:05;;;;;;;5.28;1.08;;;;;;;;;;5091037;28;20030;-58
2024/04/07 13:06:31;;;;;;;5.90;0.85;;;;;;;;;;5090421;28;20102;-59
2024/04/07 13:08:57;;;;;;;6.63;1.15;;;;;;;;;;5082720;28;20024;-58
2024/04/07 13:11:24;;;;;;;2.63;0.95;;;;;;;;;;5088654;28;20028;-59
2024/04/07 13:13:50;;;;;;;2.65;0.77;;;;;;;;;;5088906;28;20339;-55
2024/04/07 13:16:16;;;;;;;2.00;0.80;;;;;;;;;;5087111;28;20476;-59
2024/04/07 13:18:42;;;;;;;4.15;1.02;;;;;;;;;;5088272;28;20081;-58
2024/04/07 13:21:08;;;;;;;1.65;0.60;;;;;;;;;;5089603;28;20035;-57
2024/04/07 13:23:34;;;;;;;1.27;0.63;;;;;;;;;;5089166;28;20032;-59
2024/04/07 13:26:00;;;;;;;3.00;0.75;;;;;;;;;;5082340;28;20568;-60
2024/04/07 13:28:26;;;;;;;6.35;0.88;;;;;;;;;;5088782;28;20024;-59
2024/04/07 13:30:52;;;;;;;3.20;0.73;;;;;;;;;;5087544;28;20169;-57
2024/04/07 13:33:18;;;;;;;7.82;0.70;;;;;;;;;;5088939;28;20476;-59
2024/04/07 13:35:44;;;;;;;2.67;0.73;;;;;;;;;;5089841;28;20100;-59
2024/04/07 13:38:10;;;;;;;4.53;0.80;;;;;;;;;;5092880;28;20039;-59
2024/04/07 13:40:36;;;;;;;4.30;0.93;;;;;;;;;;5092744;28;20028;-58
2024/04/07 13:43:05;;;;;;;3.92;0.60;;;;;;;;;;5090243;28;20016;-58
2024/04/07 13:45:31;;;;;;;4.15;0.80;;;;;;;;;;5091017;28;20102;-58
2024/04/07 13:47:57;;;;;;;2.47;0.70;;;;;;;;;;5091710;28;20032;-57
2024/04/07 13:50:24;;;;;;;3.22;0.88;;;;;;;;;;5092471;28;20043;-57
2024/04/07 13:52:50;;;;;;;4.47;0.80;;;;;;;;;;5093476;28;20107;-57
2024/04/07 13:55:16;;;;;;;4.55;1.10;;;;;;;;;;5091381;28;20580;-58
2024/04/07 13:57:42;;;;;;;6.57;1.10;;;;;;;;;;5089999;28;20024;-58
2024/04/07 14:00:12;;;;;;;3.78;0.98;;;;;;;;;;5091804;28;20024;-57
2024/04/07 14:02:38;;;;;;;2.65;0.85;;;;;;;;;;5091911;28;20429;-57
2024/04/07 14:05:05;;;;;;;7.05;1.13;;;;;;;;;;5090431;28;20108;-57
2024/04/07 14:07:31;;;;;;;2.30;0.60;;;;;;;;;;5089319;28;20032;-58
2024/04/07 14:09:57;;;;;;;3.65;0.75;;;;;;;;;;5088712;28;20067;-58
2024/04/07 14:12:23;;;;;;;3.38;0.75;;;;;;;;;;5088778;28;20067;-57
2024/04/07 14:14:50;;;;;;;5.40;1.23;;;;;;;;;;5082079;28;20027;-59
2024/04/07 14:17:16;;;;;;;3.35;0.90;;;;;;;;;;5079191;28;20036;-59
2024/04/07 14:19:42;;;;;;;4.40;0.75;;;;;;;;;;5081464;28;20571;-61
2024/04/07 14:22:08;;;;;;;4.32;0.82;;;;;;;;;;5075137;28;20524;-59
2024/04/07 14:24:34;;;;;;;2.50;1.00;;;;;;;;;;5079958;28;20500;-58
2024/04/07 14:27:00;;;;;;;3.33;1.05;;;;;;;;;;5086587;28;20074;-58
2024/04/07 14:29:26;;;;;;;5.75;0.85;;;;;;;;;;5087514;28;20120;-60
2024/04/07 14:31:53;;;;;;;6.60;0.88;;;;;;;;;;5075916;28;20036;-60
2024/04/07 14:34:19;;;;;;;4.38;0.70;;;;;;;;;;5078746;28;20051;-58
2024/04/07 14:36:44;;;;;;;3.30;1.00;;;;;;;;;;5089334;28;20503;-59
2024/04/07 14:39:10;;;;;;;4.20;0.88;;;;;;;;;;5093294;28;20470;-59
2024/04/07 14:41:36;;;;;;;5.03;1.23;;;;;;;;;;5091086;28;20507;-57